Dixon, IL (61021)

8:40 PM CDT on October 22, 2014 (GMT -0500)
South Side | Change Station
CLOSE
Current Station
Personal Weather Station
Location: Dixon, IL
Elevation: 702 ft
Nearby Weather Stations

Elev 702 ft 41.84 °N, 89.49 °W | Updated 2 seconds ago

Clear
Clear
43.9 °F
Feels Like 44 °F
N
0.0
Wind Variable Wind from SE
Gusts 0.0 mph

Today
High -- | Low -- °F
--% Chance of Precip.
Yesterday
High -- | Low -- °F
Precip. -- in
7:18 AM 6:05 PM
Waning Crescent, 1% visible
Pressure 30.25 in
Visibility 10.0 miles
Clouds Clear
Windchill 44 °F
Dew Point 38 °F
Humidity 78%
Rainfall 0.00 in
Snow Depth Not available.
UV 0 out of 12
Pollen 1.10 out of 12
Air Quality Not available.
Flu Activity No Activity
METAR KSQI 230135Z AUTO 12003KT 10SM CLR 04/01 A3025 RMK AO1

More Conditions Fewer Conditions

Pressure 30.25 in
Visibility 10.0 miles
Clouds Clear
Windchill 44 °F
Dew Point 38 °F
Humidity 78%
Rainfall 0.00 in
Snow Depth Not available.
UV 0 out of 12
Pollen 1.10 out of 12
Air Quality Not available.
Flu Activity No Activity
METAR KSQI 230135Z AUTO 12003KT 10SM CLR 04/01 A3025 RMK AO1

More Conditions Fewer Conditions

10-Day Weather Forecast

Almanac

Astronomy

Oct. 22, 2014 Rise Set
Actual Time 7:18 AM CDT 6:05 PM CDT
Civil Twilight 6:49 AM CDT 6:34 PM CDT
Nautical Twilight 6:17 AM CDT 7:06 PM CDT
Astronomical Twilight 5:45 AM CDT 7:38 PM CDT
Moon 5:58 AM CDT (10/22) 5:33 PM CDT (10/22)
Length of Visible Light 11h 44m
Length of Day
10h 47m
Tomorrow will be 2m 37s shorter.
Waning Crescent, 1% of the Moon is Illuminated
Today
Waning Crescent
Oct 23
New
Oct 30
First Quarter
Nov 6
Full
Nov 14
Last Quarter

Today's Extremes

State Highs State Lows

Community

WunderPhotos

Upload Photos

1,764,108 photos uploaded!

Nearby

Snow Depth

Station Depth Elevation
No new snow has been reported.

Earthquake Activity

City Distance Mag. Time & Date
No recent earthquake activity has been reported nearby.
Minimum magnitude displayed is 2.5.

Coastal Water Temperatures

Place Temperature
No Stations Reporting

Nearby Weather Stations